createdAt,value
2019-03-18T00:01:51.248Z,2.20
2019-03-18T00:04:19.106Z,2.10
2019-03-18T00:06:46.975Z,2.00
2019-03-18T00:09:14.870Z,2.00
2019-03-18T00:11:42.792Z,1.90
2019-03-18T00:14:10.717Z,1.80
2019-03-18T00:16:38.669Z,1.80
2019-03-18T00:19:06.512Z,1.80
2019-03-18T00:21:34.471Z,1.70
2019-03-18T00:24:02.358Z,1.60
2019-03-18T00:26:31.619Z,1.60
2019-03-18T00:28:59.488Z,1.60
2019-03-18T00:31:27.328Z,1.50
2019-03-18T00:33:55.176Z,1.50
2019-03-18T00:36:23.023Z,1.40
2019-03-18T00:38:50.975Z,1.30
2019-03-18T00:41:18.828Z,1.30
2019-03-18T00:43:46.798Z,1.30
2019-03-18T00:46:15.033Z,1.20
2019-03-18T00:48:42.888Z,1.20
2019-03-18T00:51:11.048Z,1.20
2019-03-18T00:53:38.884Z,1.20
2019-03-18T00:56:06.810Z,1.10
2019-03-18T00:58:34.799Z,1.20
2019-03-18T01:01:02.649Z,1.10
2019-03-18T01:03:30.852Z,1.20
2019-03-18T01:05:58.852Z,1.10
2019-03-18T01:08:26.798Z,1.10
2019-03-18T01:10:54.708Z,1.10
2019-03-18T01:13:22.554Z,1.10
2019-03-18T01:15:50.420Z,1.10
2019-03-18T01:18:18.355Z,1.10
2019-03-18T01:20:46.222Z,1.10
2019-03-18T01:23:14.058Z,1.10
2019-03-18T01:25:41.938Z,1.00
2019-03-18T01:28:09.891Z,1.00
2019-03-18T01:30:37.777Z,1.00
2019-03-18T01:33:05.711Z,1.00
2019-03-18T01:35:33.558Z,1.00
2019-03-18T01:38:01.421Z,0.90
2019-03-18T01:40:29.460Z,0.90
2019-03-18T01:42:57.443Z,1.00
2019-03-18T01:45:25.302Z,1.00
2019-03-18T01:47:54.684Z,1.00
2019-03-18T01:50:22.576Z,1.10
2019-03-18T01:52:50.443Z,1.10
2019-03-18T01:55:18.413Z,1.10
2019-03-18T01:57:46.379Z,1.20
2019-03-18T02:00:14.348Z,1.20
2019-03-18T02:02:42.375Z,1.30
2019-03-18T02:05:10.225Z,1.40
2019-03-18T02:07:38.147Z,1.50
2019-03-18T02:10:06.100Z,1.50
2019-03-18T02:12:34.072Z,1.60
2019-03-18T02:15:02.069Z,1.70
2019-03-18T02:17:30.074Z,1.70
2019-03-18T02:19:58.041Z,1.80
2019-03-18T02:22:25.938Z,1.80
2019-03-18T02:24:53.809Z,1.80
2019-03-18T02:27:21.794Z,1.80
2019-03-18T02:29:49.767Z,1.90
2019-03-18T02:32:17.673Z,1.90
2019-03-18T02:34:45.849Z,2.00
2019-03-18T02:37:13.800Z,2.10
2019-03-18T02:39:41.689Z,2.20
2019-03-18T02:42:09.756Z,2.30
2019-03-18T02:44:37.672Z,2.40
2019-03-18T02:47:05.568Z,2.40
2019-03-18T02:49:33.472Z,2.40
2019-03-18T02:52:01.884Z,2.50
2019-03-18T02:54:29.970Z,2.60
2019-03-18T02:56:58.016Z,2.60
2019-03-18T02:59:25.865Z,2.70
2019-03-18T03:01:53.895Z,2.80
2019-03-18T03:04:21.809Z,2.90
2019-03-18T03:06:49.874Z,3.00
2019-03-18T03:09:17.909Z,3.20
2019-03-18T03:11:45.818Z,3.30
2019-03-18T03:14:13.706Z,3.30
2019-03-18T03:16:41.573Z,3.40
2019-03-18T03:19:09.516Z,3.50
2019-03-18T03:21:37.418Z,3.50
2019-03-18T03:24:05.382Z,3.50
2019-03-18T03:26:33.446Z,3.60
2019-03-18T03:29:01.483Z,3.60
2019-03-18T03:31:29.785Z,3.60
2019-03-18T03:33:57.653Z,3.60
2019-03-18T03:36:25.618Z,3.50
2019-03-18T03:38:53.532Z,3.50
2019-03-18T03:41:21.512Z,3.50
2019-03-18T03:43:49.436Z,3.50
2019-03-18T03:46:17.394Z,3.50
2019-03-18T03:48:45.226Z,3.50
2019-03-18T03:51:13.112Z,3.50
2019-03-18T03:53:42.190Z,3.50
2019-03-18T03:56:10.151Z,3.60
2019-03-18T03:58:38.217Z,3.60
2019-03-18T04:01:06.246Z,3.60
2019-03-18T04:03:38.797Z,3.70
2019-03-18T04:06:04.975Z,3.70
2019-03-18T04:08:32.871Z,3.80
2019-03-18T04:11:00.760Z,3.80
2019-03-18T04:13:28.713Z,3.80
2019-03-18T04:15:56.607Z,3.90
2019-03-18T04:18:24.489Z,3.90
2019-03-18T04:20:52.336Z,3.80
2019-03-18T04:23:20.353Z,3.80
2019-03-18T04:25:48.323Z,3.80
2019-03-18T04:28:16.244Z,3.80
2019-03-18T04:30:44.313Z,3.80
2019-03-18T04:33:12.347Z,3.70
2019-03-18T04:35:40.195Z,3.70
2019-03-18T04:38:08.071Z,3.70
2019-03-18T04:40:35.929Z,3.70
2019-03-18T04:43:03.929Z,3.70
2019-03-18T04:45:32.430Z,3.70
2019-03-18T04:48:00.320Z,3.70
2019-03-18T04:50:28.277Z,3.70
2019-03-18T04:52:56.188Z,3.70
2019-03-18T04:55:24.084Z,3.80
2019-03-18T04:57:51.970Z,3.80
2019-03-18T05:00:19.955Z,3.80
2019-03-18T05:02:47.830Z,3.80
2019-03-18T05:05:17.210Z,3.90
2019-03-18T05:07:45.147Z,3.90
2019-03-18T05:10:13.121Z,3.90
2019-03-18T05:12:41.075Z,3.90
2019-03-18T05:15:09.050Z,3.90
2019-03-18T05:17:37.026Z,3.80
2019-03-18T05:20:07.714Z,3.70
2019-03-18T05:22:35.702Z,3.70
2019-03-18T05:25:03.679Z,3.60
2019-03-18T05:27:31.736Z,3.60
2019-03-18T05:29:59.774Z,3.60
2019-03-18T05:32:27.706Z,3.60
2019-03-18T05:34:56.438Z,3.70
2019-03-18T05:37:24.422Z,3.70
2019-03-18T05:39:52.296Z,3.70
2019-03-18T05:42:20.183Z,3.70
2019-03-18T05:44:48.145Z,3.70
2019-03-18T05:47:16.100Z,3.70
2019-03-18T05:49:43.994Z,3.80
2019-03-18T05:52:11.862Z,3.80
2019-03-18T05:54:39.827Z,3.80
2019-03-18T05:57:07.817Z,3.80
2019-03-18T05:59:35.774Z,3.90
2019-03-18T06:02:03.630Z,3.90
2019-03-18T06:04:31.488Z,3.90
2019-03-18T06:06:59.935Z,3.90
2019-03-18T06:09:27.864Z,3.90
2019-03-18T06:11:55.797Z,4.00
2019-03-18T06:14:23.772Z,4.00
2019-03-18T06:16:52.017Z,4.00
2019-03-18T06:19:19.973Z,4.00
2019-03-18T06:21:47.892Z,4.00
2019-03-18T06:24:15.846Z,4.00
2019-03-18T06:26:43.846Z,4.00
2019-03-18T06:29:11.883Z,4.00
2019-03-18T06:31:40.045Z,4.10
2019-03-18T06:34:07.904Z,4.10
2019-03-18T06:36:45.593Z,4.10
2019-03-18T06:39:13.463Z,4.10
2019-03-18T06:41:41.377Z,4.20
2019-03-18T06:44:09.723Z,4.20
2019-03-18T06:46:37.678Z,4.20
2019-03-18T06:49:05.654Z,4.30
2019-03-18T06:51:33.525Z,4.30
2019-03-18T06:54:01.409Z,4.30
2019-03-18T06:56:29.351Z,4.30
2019-03-18T06:58:57.326Z,4.30
2019-03-18T07:01:25.201Z,4.30
2019-03-18T07:03:53.090Z,4.30
2019-03-18T07:06:21.023Z,4.30
2019-03-18T07:08:48.920Z,4.30
2019-03-18T07:11:16.886Z,4.30
2019-03-18T07:13:44.917Z,4.20
2019-03-18T07:16:12.896Z,4.30
2019-03-18T07:18:40.795Z,4.30
2019-03-18T07:21:08.737Z,4.20
2019-03-18T07:23:36.645Z,4.20
2019-03-18T07:26:04.491Z,4.20
2019-03-18T07:28:32.460Z,4.20
2019-03-18T07:31:00.351Z,4.30
2019-03-18T07:33:28.327Z,4.30
2019-03-18T07:35:56.275Z,4.30
2019-03-18T07:38:24.215Z,4.30
2019-03-18T07:40:52.192Z,4.40
2019-03-18T07:43:20.184Z,4.50
2019-03-18T07:45:48.072Z,4.60
2019-03-18T07:48:15.969Z,4.70
2019-03-18T07:50:43.863Z,4.70
2019-03-18T07:53:11.772Z,4.90
2019-03-18T07:55:39.723Z,4.90
2019-03-18T07:58:07.716Z,5.00
2019-03-18T08:00:35.743Z,5.10
2019-03-18T08:03:03.783Z,5.10
2019-03-18T08:05:31.705Z,5.10
2019-03-18T08:07:59.676Z,5.10
2019-03-18T08:10:27.652Z,5.20
2019-03-18T08:12:56.076Z,5.20
2019-03-18T08:15:24.077Z,5.10
2019-03-18T08:17:51.957Z,5.20
2019-03-18T08:20:19.851Z,5.30
2019-03-18T08:22:47.771Z,5.40
2019-03-18T08:25:15.770Z,5.50
2019-03-18T08:27:43.946Z,5.50
2019-03-18T08:30:11.811Z,5.60
2019-03-18T08:32:39.668Z,5.60
2019-03-18T08:35:07.601Z,5.70
2019-03-18T08:37:35.479Z,5.60
2019-03-18T08:40:03.583Z,5.60
2019-03-18T08:42:31.524Z,5.60
2019-03-18T08:44:59.426Z,5.60
2019-03-18T08:47:27.415Z,5.70
2019-03-18T08:49:55.353Z,5.80
2019-03-18T08:52:23.414Z,5.80
2019-03-18T08:54:51.415Z,5.80
2019-03-18T08:57:20.772Z,5.90
2019-03-18T08:59:48.818Z,5.80
2019-03-18T09:02:16.769Z,5.90
2019-03-18T09:04:44.753Z,5.80
2019-03-18T09:07:12.758Z,5.80
2019-03-18T09:09:40.836Z,5.80
2019-03-18T09:12:10.803Z,5.80
2019-03-18T09:14:44.402Z,5.90
2019-03-18T09:17:12.619Z,5.90
2019-03-18T09:19:41.086Z,5.90
2019-03-18T09:22:09.140Z,6.00
2019-03-18T09:24:37.257Z,6.10
2019-03-18T09:27:05.387Z,6.10
2019-03-18T09:29:35.532Z,6.30
2019-03-18T09:32:05.927Z,6.40
2019-03-18T09:34:34.005Z,6.40
2019-03-18T09:37:02.081Z,6.50
2019-03-18T09:39:30.099Z,6.60
2019-03-18T09:41:58.229Z,6.60
2019-03-18T09:44:26.270Z,6.60
2019-03-18T09:46:56.633Z,6.60
2019-03-18T09:49:45.682Z,6.70
2019-03-18T09:52:13.843Z,6.60
2019-03-18T09:54:43.647Z,6.70
2019-03-18T09:57:11.582Z,6.60
2019-03-18T09:59:42.938Z,6.70
2019-03-18T10:02:10.989Z,6.60
2019-03-18T10:04:39.155Z,6.60
2019-03-18T10:07:07.186Z,6.60
2019-03-18T10:09:35.236Z,6.50
2019-03-18T10:12:03.278Z,6.60
2019-03-18T10:14:31.285Z,6.60
2019-03-18T10:17:09.624Z,6.60
2019-03-18T10:19:33.758Z,6.60
2019-03-18T10:22:01.465Z,6.70
2019-03-18T10:24:29.465Z,6.80
2019-03-18T10:26:58.564Z,6.80
2019-03-18T10:29:26.618Z,6.90
2019-03-18T10:31:54.610Z,6.90
2019-03-18T10:34:22.651Z,7.00
2019-03-18T10:36:50.678Z,7.00
2019-03-18T10:39:18.756Z,7.20
2019-03-18T10:41:48.920Z,7.20
2019-03-18T10:44:17.061Z,7.20
2019-03-18T10:46:45.130Z,7.30
2019-03-18T10:49:16.231Z,7.40
2019-03-18T10:51:44.306Z,7.80
2019-03-18T10:54:12.447Z,8.00
2019-03-18T10:56:41.295Z,8.10
2019-03-18T10:59:09.444Z,8.20
2019-03-18T11:01:37.359Z,8.30
2019-03-18T11:04:07.032Z,8.30
2019-03-18T11:06:36.653Z,8.30
2019-03-18T11:09:04.732Z,8.40
2019-03-18T11:11:32.793Z,8.50
2019-03-18T11:14:00.888Z,8.50
2019-03-18T11:16:31.261Z,8.50
2019-03-18T11:18:58.703Z,8.80
2019-03-18T11:21:26.743Z,9.10
2019-03-18T11:23:54.742Z,9.20
2019-03-18T11:26:22.757Z,9.20
2019-03-18T11:28:50.883Z,9.10
2019-03-18T11:31:18.934Z,8.90
2019-03-18T11:33:47.075Z,8.80
2019-03-18T11:36:15.143Z,8.80
2019-03-18T11:38:43.280Z,8.80
2019-03-18T11:41:11.260Z,8.60
2019-03-18T11:43:41.518Z,8.50
2019-03-18T11:46:09.565Z,8.60
2019-03-18T11:48:37.728Z,8.30
2019-03-18T11:51:07.492Z,8.00
2019-03-18T11:53:35.608Z,7.80
2019-03-18T11:56:03.677Z,7.80
2019-03-18T11:58:33.390Z,7.70
2019-03-18T12:01:01.465Z,7.50
2019-03-18T12:03:32.261Z,7.30
2019-03-18T12:06:01.829Z,6.90
2019-03-18T12:08:29.822Z,6.70
2019-03-18T12:11:00.644Z,6.70
2019-03-18T12:13:28.729Z,6.70
2019-03-18T12:15:56.781Z,6.80
2019-03-18T12:18:24.889Z,6.90
2019-03-18T12:20:53.076Z,6.90
2019-03-18T12:23:21.184Z,7.10
2019-03-18T12:25:51.756Z,7.40
2019-03-18T12:28:19.895Z,7.60
2019-03-18T12:30:47.753Z,7.80
2019-03-18T12:33:17.579Z,8.20
2019-03-18T12:35:45.748Z,8.50
2019-03-18T12:38:13.814Z,8.70
2019-03-18T12:40:41.903Z,9.00
2019-03-18T12:43:10.693Z,9.20
2019-03-18T12:45:38.666Z,9.50
2019-03-18T12:48:06.616Z,9.70
2019-03-18T12:50:54.387Z,10.00
2019-03-18T12:53:04.367Z,10.40
2019-03-18T12:55:32.452Z,10.50
2019-03-18T12:58:01.839Z,10.80
2019-03-18T13:00:37.396Z,11.10
2019-03-18T13:03:04.468Z,11.20
2019-03-18T13:05:32.508Z,11.30
2019-03-18T13:08:00.595Z,11.30
2019-03-18T13:10:28.649Z,11.20
2019-03-18T13:12:56.916Z,11.10
2019-03-18T13:15:25.077Z,11.00
2019-03-18T13:17:53.256Z,10.90
2019-03-18T13:20:21.304Z,10.80
2019-03-18T13:22:49.409Z,10.80
2019-03-18T13:25:17.404Z,10.60
2019-03-18T13:27:45.439Z,10.40
2019-03-18T13:30:15.437Z,10.30
2019-03-18T13:32:43.132Z,10.20
2019-03-18T13:35:11.289Z,10.20
2019-03-18T13:37:39.304Z,10.00
2019-03-18T13:40:07.269Z,9.90
2019-03-18T13:42:38.348Z,9.70
2019-03-18T13:45:08.813Z,9.70
2019-03-18T13:47:36.916Z,9.50
2019-03-18T13:50:07.099Z,9.30
2019-03-18T13:52:37.533Z,8.80
2019-03-18T13:55:05.575Z,8.50
2019-03-18T13:57:33.608Z,8.20
2019-03-18T14:00:01.705Z,7.90
2019-03-18T14:02:29.738Z,7.60
2019-03-18T14:04:57.782Z,7.30
2019-03-18T14:07:28.344Z,7.20
2019-03-18T14:09:58.901Z,7.20
2019-03-18T14:12:28.699Z,7.20
2019-03-18T14:14:56.729Z,7.20
2019-03-18T14:17:26.878Z,7.40
2019-03-18T14:19:54.958Z,7.90
2019-03-18T14:22:22.964Z,8.40
2019-03-18T14:24:53.450Z,8.90
2019-03-18T14:27:22.794Z,9.70
2019-03-18T14:29:50.892Z,10.10
2019-03-18T14:32:18.971Z,10.30
2019-03-18T14:34:47.039Z,10.00
2019-03-18T14:37:15.138Z,9.80
2019-03-18T14:39:43.105Z,9.60
2019-03-18T14:42:11.063Z,9.40
2019-03-18T14:44:41.622Z,9.40
2019-03-18T14:47:09.645Z,9.60
2019-03-18T14:49:37.598Z,9.90
2019-03-18T14:52:05.659Z,10.00
2019-03-18T14:54:33.770Z,10.60
2019-03-18T14:57:01.786Z,11.20
2019-03-18T14:59:31.095Z,11.60
2019-03-18T15:01:59.167Z,12.10
2019-03-18T15:04:28.271Z,12.50
2019-03-18T15:06:56.404Z,12.70
2019-03-18T15:09:26.904Z,12.90
2019-03-18T15:11:54.937Z,13.20
2019-03-18T15:14:22.921Z,13.40
2019-03-18T15:16:50.965Z,13.80
2019-03-18T15:19:19.089Z,14.30
2019-03-18T15:21:58.050Z,14.60
2019-03-18T15:24:17.508Z,15.10
2019-03-18T15:26:45.591Z,15.20
2019-03-18T15:29:13.652Z,15.60
2019-03-18T15:31:44.679Z,15.80
2019-03-18T15:34:12.868Z,15.60
2019-03-18T15:36:43.991Z,15.40
2019-03-18T15:39:12.222Z,15.20
2019-03-18T15:41:43.042Z,14.50
2019-03-18T15:44:13.356Z,13.70
2019-03-18T15:46:41.348Z,12.90
2019-03-18T15:49:09.357Z,12.00
2019-03-18T15:51:37.319Z,11.40
2019-03-18T15:54:06.715Z,11.00
2019-03-18T15:56:36.217Z,11.00
2019-03-18T15:59:06.518Z,11.40
2019-03-18T16:01:34.616Z,12.40
2019-03-18T16:04:02.614Z,13.60
2019-03-18T16:06:30.663Z,14.70
2019-03-18T16:09:01.033Z,15.70
2019-03-18T16:11:30.756Z,16.20
2019-03-18T16:13:58.700Z,16.60
2019-03-18T16:16:26.759Z,17.50
2019-03-18T16:18:54.817Z,17.50
2019-03-18T16:21:22.805Z,17.60
2019-03-18T16:23:50.901Z,17.60
2019-03-18T16:26:18.934Z,17.60
2019-03-18T16:28:49.529Z,18.10
2019-03-18T16:31:17.635Z,17.90
2019-03-18T16:33:45.601Z,17.10
2019-03-18T16:36:13.695Z,16.40
2019-03-18T16:38:43.334Z,15.90
2019-03-18T16:41:13.131Z,14.90
2019-03-18T16:43:41.224Z,13.80
2019-03-18T16:46:09.220Z,12.60
2019-03-18T16:48:39.949Z,11.70
2019-03-18T16:51:08.038Z,11.00
2019-03-18T16:53:36.192Z,10.40
2019-03-18T16:56:05.729Z,9.90
2019-03-18T16:58:33.757Z,9.40
2019-03-18T17:01:01.752Z,9.20
2019-03-18T17:03:29.970Z,8.90
2019-03-18T17:06:00.434Z,8.70
2019-03-18T17:08:28.509Z,8.50
2019-03-18T17:10:56.538Z,8.30
2019-03-18T17:13:24.585Z,8.10
2019-03-18T17:15:54.486Z,7.90
2019-03-18T17:18:22.535Z,7.90
2019-03-18T17:20:50.532Z,7.80
2019-03-18T17:23:20.045Z,7.60
2019-03-18T17:25:50.150Z,7.50
2019-03-18T17:28:19.215Z,7.40
2019-03-18T17:30:47.320Z,7.30
2019-03-18T17:33:15.218Z,7.20
2019-03-18T17:35:43.131Z,7.10
2019-03-18T17:38:11.069Z,7.00
2019-03-18T17:40:39.058Z,6.90
2019-03-18T17:43:06.917Z,6.80
2019-03-18T17:45:34.825Z,6.70
2019-03-18T17:48:02.663Z,6.60
2019-03-18T17:50:30.566Z,6.50
2019-03-18T17:53:02.812Z,6.50
2019-03-18T17:55:28.176Z,6.40
2019-03-18T17:57:56.126Z,6.30
2019-03-18T18:00:28.887Z,6.30
2019-03-18T18:02:56.725Z,6.20
2019-03-18T18:05:24.655Z,6.20
2019-03-18T18:07:52.513Z,6.10
2019-03-18T18:10:20.384Z,6.00
2019-03-18T18:12:48.339Z,6.00
2019-03-18T18:15:16.254Z,6.00
2019-03-18T18:17:44.281Z,6.00
2019-03-18T18:20:12.124Z,6.00
2019-03-18T18:22:41.132Z,6.00
2019-03-18T18:25:09.363Z,6.00
2019-03-18T18:27:37.243Z,5.90
2019-03-18T18:30:05.121Z,5.80
2019-03-18T18:32:33.066Z,5.80
2019-03-18T18:35:01.055Z,5.70
2019-03-18T18:37:29.065Z,5.70
2019-03-18T18:39:57.119Z,5.70
2019-03-18T18:42:25.509Z,5.70
2019-03-18T18:44:53.388Z,5.60
2019-03-18T18:47:21.594Z,5.60
2019-03-18T18:49:49.464Z,5.60
2019-03-18T18:52:17.445Z,5.50
2019-03-18T18:54:45.397Z,5.50
2019-03-18T18:57:13.383Z,5.40
2019-03-18T18:59:41.317Z,5.40
2019-03-18T19:02:09.385Z,5.40
2019-03-18T19:04:37.374Z,5.30
2019-03-18T19:07:05.382Z,5.30
2019-03-18T19:09:33.442Z,5.30
2019-03-18T19:12:01.410Z,5.30
2019-03-18T19:14:29.327Z,5.20
2019-03-18T19:16:57.183Z,5.20
2019-03-18T19:19:25.079Z,5.20
2019-03-18T19:21:52.998Z,5.20
2019-03-18T19:24:21.430Z,5.20
2019-03-18T19:26:49.521Z,5.20
2019-03-18T19:29:17.405Z,5.20
2019-03-18T19:31:45.321Z,5.20
2019-03-18T19:34:13.320Z,5.20
2019-03-18T19:36:41.324Z,5.20
2019-03-18T19:39:09.363Z,5.10
2019-03-18T19:41:39.932Z,5.10
2019-03-18T19:44:07.032Z,5.00
2019-03-18T19:46:34.958Z,5.00
2019-03-18T19:49:03.222Z,5.00
2019-03-18T19:51:31.215Z,4.90
2019-03-18T19:53:59.261Z,4.80
2019-03-18T19:56:27.351Z,4.80
2019-03-18T19:58:55.399Z,4.70
2019-03-18T20:01:23.379Z,4.70
2019-03-18T20:03:53.271Z,4.60
2019-03-18T20:06:21.297Z,4.50
2019-03-18T20:08:49.342Z,4.50
2019-03-18T20:11:17.461Z,4.50
2019-03-18T20:13:45.469Z,4.40
2019-03-18T20:16:13.444Z,4.30
2019-03-18T20:18:41.329Z,4.30
2019-03-18T20:21:09.293Z,4.20
2019-03-18T20:23:37.212Z,4.20
2019-03-18T20:26:05.261Z,4.10
2019-03-18T20:28:33.300Z,4.10
2019-03-18T20:31:01.271Z,4.20
2019-03-18T20:33:29.387Z,4.20
2019-03-18T20:35:57.285Z,4.20
2019-03-18T20:38:25.525Z,4.10
2019-03-18T20:40:53.670Z,4.10
2019-03-18T20:43:21.829Z,4.00
2019-03-18T20:45:49.868Z,4.00
2019-03-18T20:48:17.896Z,3.90
2019-03-18T20:50:45.923Z,3.90
2019-03-18T20:53:13.984Z,3.90
2019-03-18T20:55:42.287Z,4.00
2019-03-18T20:58:10.668Z,3.90
2019-03-18T21:00:38.737Z,3.90
2019-03-18T21:03:06.787Z,3.80
2019-03-18T21:05:34.773Z,3.80
2019-03-18T21:08:02.887Z,3.70
2019-03-18T21:10:30.937Z,3.70
2019-03-18T21:12:59.932Z,3.60
2019-03-18T21:15:27.917Z,3.60
2019-03-18T21:17:55.908Z,3.70
2019-03-18T21:20:23.855Z,3.70
2019-03-18T21:22:51.922Z,3.70
2019-03-18T21:25:19.986Z,3.70
2019-03-18T21:27:47.988Z,3.60
2019-03-18T21:30:15.865Z,3.60
2019-03-18T21:32:43.863Z,3.60
2019-03-18T21:35:11.843Z,3.60
2019-03-18T21:37:39.878Z,3.50
2019-03-18T21:40:08.013Z,3.50
2019-03-18T21:42:36.033Z,3.50
2019-03-18T21:45:04.147Z,3.40
2019-03-18T21:47:32.157Z,3.40
2019-03-18T21:50:00.235Z,3.40
2019-03-18T21:52:28.453Z,3.40
2019-03-18T21:54:56.700Z,3.50
2019-03-18T21:57:24.709Z,3.40
2019-03-18T21:59:52.653Z,3.30
2019-03-18T22:02:20.579Z,3.20
2019-03-18T22:04:48.965Z,3.20
2019-03-18T22:07:16.985Z,3.20
2019-03-18T22:09:45.008Z,3.20
2019-03-18T22:12:12.945Z,3.20
2019-03-18T22:14:41.150Z,3.30
2019-03-18T22:17:09.071Z,3.30
2019-03-18T22:19:36.961Z,3.30
2019-03-18T22:22:04.830Z,3.20
2019-03-18T22:24:32.811Z,3.20
2019-03-18T22:27:00.687Z,3.20
2019-03-18T22:29:28.578Z,3.30
2019-03-18T22:31:56.468Z,3.30
2019-03-18T22:34:25.072Z,3.30
2019-03-18T22:36:53.108Z,3.30
2019-03-18T22:39:21.085Z,3.30
2019-03-18T22:41:49.029Z,3.30
2019-03-18T22:44:16.999Z,3.20
2019-03-18T22:46:44.963Z,3.20
2019-03-18T22:49:12.958Z,3.10
2019-03-18T22:51:40.840Z,3.10
2019-03-18T22:54:08.816Z,3.10
2019-03-18T22:56:36.691Z,3.10
2019-03-18T22:59:04.583Z,3.10
2019-03-18T23:01:32.705Z,3.10
2019-03-18T23:04:00.642Z,3.10
2019-03-18T23:06:28.632Z,3.10
2019-03-18T23:08:56.621Z,3.10
2019-03-18T23:11:24.498Z,3.10
2019-03-18T23:13:52.380Z,3.10
2019-03-18T23:16:20.233Z,3.10
2019-03-18T23:18:48.555Z,3.20
2019-03-18T23:21:16.462Z,3.20
2019-03-18T23:23:44.410Z,3.10
2019-03-18T23:26:12.295Z,3.10
2019-03-18T23:28:40.198Z,3.00
2019-03-18T23:31:08.215Z,3.00
2019-03-18T23:33:36.247Z,3.00
2019-03-18T23:36:04.148Z,2.90
2019-03-18T23:38:32.089Z,3.00
2019-03-18T23:41:00.435Z,2.90
2019-03-18T23:43:28.311Z,2.90
2019-03-18T23:45:56.720Z,2.90
2019-03-18T23:48:24.665Z,2.80
2019-03-18T23:50:52.565Z,2.70
2019-03-18T23:53:20.528Z,2.60
2019-03-18T23:55:48.455Z,2.60
2019-03-18T23:58:16.336Z,2.50
